^^
Saratoga-Weather Station Historical Data
Daily Summary for March 10, 2020 Units:  Both    English   Metric
Daily Weekly Monthly Yearly Custom
  High: Low: Average:
Temperature: 72.7 °F /  22.6 °C 62.4 °F /  16.9 °C 67.6 °F /  19.8 °C
Dew Point: 59.4 °F /  15.2 °C 53.6 °F /  12 °C 57.4 °F /  14.1 °C
Humidity: 85% 59% 70%
Wind Speed: 14mph /  22.5km/h - 3.7mph /  5.9km/h
Wind Gust: 14mph /  22.5km/h - -
Wind- - West
Pressure: 30.1 in /  1018.0 hPa 29.8 in /  1008.8 hPa -
Precipitation: 0 in /  0.0 mm    
Historical Graphs
 
 
Tabular Data for March 10, 2020
Time Temperature Dew Point Pressure Wind Wind Speed Wind Gust Humidity Rainfall Rate (Hourly) solar
00:01 70.3 °F /  21.3 °C 58.8 °F /  14.9 °C 29.8in /  1009.8hPa Calm     67% 0in /  0.0mm 0 W/m2
00:06 70 °F /  21.1 °C 58.5 °F /  14.7 °C 29.8in /  1009.8hPa Calm     67% 0in /  0.0mm 0 W/m2
00:11 69.8 °F /  21 °C 58.3 °F /  14.6 °C 29.8in /  1009.8hPa Calm     67% 0in /  0.0mm 0 W/m2
00:17 69.6 °F /  20.9 °C 58.6 °F /  14.8 °C 29.8in /  1009.8hPa Calm     68% 0in /  0.0mm 0 W/m2
00:22 69.4 °F /  20.8 °C 58.5 °F /  14.7 °C 29.8in /  1009.8hPa Calm     68% 0in /  0.0mm 0 W/m2
00:27 69.3 °F /  20.7 °C 58.3 °F /  14.6 °C 29.8in /  1009.8hPa Calm     68% 0in /  0.0mm 0 W/m2
00:32 69.3 °F /  20.7 °C 58.6 °F /  14.8 °C 29.8in /  1009.8hPa Calm     69% 0in /  0.0mm 0 W/m2
00:37 69.1 °F /  20.6 °C 58.5 °F /  14.7 °C 29.8in /  1009.8hPa Calm     69% 0in /  0.0mm 0 W/m2
00:42 69.1 °F /  20.6 °C 58.5 °F /  14.7 °C 29.8in /  1009.8hPa Calm     69% 0in /  0.0mm 0 W/m2
00:47 69.1 °F /  20.6 °C 58.5 °F /  14.7 °C 29.8in /  1009.8hPa Calm     69% 0in /  0.0mm 0 W/m2
00:52 69.1 °F /  20.6 °C 58.5 °F /  14.7 °C 29.8in /  1009.8hPa Calm     69% 0in /  0.0mm 0 W/m2
00:57 69.1 °F /  20.6 °C 58.5 °F /  14.7 °C 29.8in /  1009.5hPa SSE 0.9mph /  1.4km/h 1mph /  1.6km/h 69% 0in /  0.0mm 0 W/m2
01:02 69.1 °F /  20.6 °C 58.5 °F /  14.7 °C 29.8in /  1009.5hPa Calm     69% 0in /  0.0mm 0 W/m2
01:07 69.1 °F /  20.6 °C 58.1 °F /  14.5 °C 29.8in /  1009.5hPa Calm   1mph /  1.6km/h 68% 0in /  0.0mm 0 W/m2
01:12 69.3 °F /  20.7 °C 58.3 °F /  14.6 °C 29.8in /  1009.5hPa Calm   1mph /  1.6km/h 68% 0in /  0.0mm 0 W/m2
01:17 69.3 °F /  20.7 °C 58.3 °F /  14.6 °C 29.8in /  1009.5hPa SSE 2mph /  3.2km/h 2mph /  3.2km/h 68% 0in /  0.0mm 0 W/m2
01:22 69.4 °F /  20.8 °C 58.5 °F /  14.7 °C 29.8in /  1009.5hPa ENE 0.9mph /  1.4km/h 1mph /  1.6km/h 68% 0in /  0.0mm 0 W/m2
01:27 70.2 °F /  21.2 °C 57.9 °F /  14.4 °C 29.8in /  1009.5hPa South 0.9mph /  1.4km/h 3mph /  4.8km/h 65% 0in /  0.0mm 0 W/m2
01:32 71.1 °F /  21.7 °C 57.7 °F /  14.3 °C 29.8in /  1009.5hPa WNW 0.9mph /  1.4km/h 1mph /  1.6km/h 63% 0in /  0.0mm 0 W/m2
01:37 71.4 °F /  21.9 °C 58.1 °F /  14.5 °C 29.8in /  1009.5hPa West 0.9mph /  1.4km/h 1mph /  1.6km/h 63% 0in /  0.0mm 0 W/m2
01:42 71.2 °F /  21.8 °C 58.8 °F /  14.9 °C 29.8in /  1009.1hPa East 4mph /  6.4km/h 4mph /  6.4km/h 65% 0in /  0.0mm 0 W/m2
01:47 71.8 °F /  22.1 °C 58.1 °F /  14.5 °C 29.8in /  1009.5hPa WNW 0.9mph /  1.4km/h 3mph /  4.8km/h 62% 0in /  0.0mm 0 W/m2
01:52 72.1 °F /  22.3 °C 57.9 °F /  14.4 °C 29.8in /  1009.1hPa NNW 0.9mph /  1.4km/h 2mph /  3.2km/h 61% 0in /  0.0mm 0 W/m2
01:57 72.1 °F /  22.3 °C 57.6 °F /  14.2 °C 29.8in /  1009.1hPa Calm   1mph /  1.6km/h 60% 0in /  0.0mm 0 W/m2
02:02 72.1 °F /  22.3 °C 57.9 °F /  14.4 °C 29.8in /  1009.1hPa Calm   1mph /  1.6km/h 61% 0in /  0.0mm 0 W/m2
02:07 72 °F /  22.2 °C 58.3 °F /  14.6 °C 29.8in /  1009.1hPa NE 0.9mph /  1.4km/h 1mph /  1.6km/h 62% 0in /  0.0mm 0 W/m2
02:12 72 °F /  22.2 °C 58.3 °F /  14.6 °C 29.8in /  1009.1hPa Calm   1mph /  1.6km/h 62% 0in /  0.0mm 0 W/m2
02:17 72.3 °F /  22.4 °C 57.7 °F /  14.3 °C 29.8in /  1009.1hPa Calm     60% 0in /  0.0mm 0 W/m2
02:22 72.3 °F /  22.4 °C 57.7 °F /  14.3 °C 29.8in /  1009.1hPa NW 0.9mph /  1.4km/h 1mph /  1.6km/h 60% 0in /  0.0mm 0 W/m2
02:27 72.1 °F /  22.3 °C 57.9 °F /  14.4 °C 29.8in /  1009.1hPa Calm     61% 0in /  0.0mm 0 W/m2
02:33 72 °F /  22.2 °C 57.4 °F /  14.1 °C 29.8in /  1009.1hPa SW 0.9mph /  1.4km/h 1mph /  1.6km/h 60% 0in /  0.0mm 0 W/m2
02:38 72 °F /  22.2 °C 57.4 °F /  14.1 °C 29.8in /  1009.1hPa NNE 0.9mph /  1.4km/h 1mph /  1.6km/h 60% 0in /  0.0mm 0 W/m2
02:43 72.1 °F /  22.3 °C 57.6 °F /  14.2 °C 29.8in /  1008.8hPa NW 2.9mph /  4.7km/h 4mph /  6.4km/h 60% 0in /  0.0mm 0 W/m2
02:48 72.3 °F /  22.4 °C 57.7 °F /  14.3 °C 29.8in /  1009.1hPa NW 0.9mph /  1.4km/h 2mph /  3.2km/h 60% 0in /  0.0mm 0 W/m2
02:53 72.3 °F /  22.4 °C 57.7 °F /  14.3 °C 29.8in /  1009.1hPa NW 2.9mph /  4.7km/h 7mph /  11.3km/h 60% 0in /  0.0mm 0 W/m2
02:58 72.1 °F /  22.3 °C 57.6 °F /  14.2 °C 29.8in /  1009.1hPa NW 0.9mph /  1.4km/h 3mph /  4.8km/h 60% 0in /  0.0mm 0 W/m2
03:03 72.1 °F /  22.3 °C 57.6 °F /  14.2 °C 29.8in /  1009.1hPa WNW 2mph /  3.2km/h 2mph /  3.2km/h 60% 0in /  0.0mm 0 W/m2
03:08 72 °F /  22.2 °C 57.4 °F /  14.1 °C 29.8in /  1009.1hPa WSW 0.9mph /  1.4km/h 3mph /  4.8km/h 60% 0in /  0.0mm 0 W/m2
03:13 71.8 °F /  22.1 °C 57.6 °F /  14.2 °C 29.8in /  1009.1hPa WNW 2mph /  3.2km/h 5mph /  8km/h 61% 0in /  0.0mm 0 W/m2
03:18 71.8 °F /  22.1 °C 57.6 °F /  14.2 °C 29.8in /  1008.8hPa NW 2.9mph /  4.7km/h 6mph /  9.7km/h 61% 0in /  0.0mm 0 W/m2
03:23 71.4 °F /  21.9 °C 57.2 °F /  14 °C 29.8in /  1008.8hPa SSW 0.9mph /  1.4km/h 4mph /  6.4km/h 61% 0in /  0.0mm 0 W/m2
03:28 71.2 °F /  21.8 °C 57 °F /  13.9 °C 29.8in /  1008.8hPa WNW 2mph /  3.2km/h 3mph /  4.8km/h 61% 0in /  0.0mm 0 W/m2
03:33 71.1 °F /  21.7 °C 57.4 °F /  14.1 °C 29.8in /  1008.8hPa NW 2mph /  3.2km/h 2mph /  3.2km/h 62% 0in /  0.0mm 0 W/m2
03:38 70.9 °F /  21.6 °C 57.7 °F /  14.3 °C 29.8in /  1008.8hPa WNW 0.9mph /  1.4km/h 6mph /  9.7km/h 63% 0in /  0.0mm 0 W/m2
03:43 70.5 °F /  21.4 °C 57.4 °F /  14.1 °C 29.8in /  1008.8hPa West 2mph /  3.2km/h 4mph /  6.4km/h 63% 0in /  0.0mm 0 W/m2
03:48 70.2 °F /  21.2 °C 57.4 °F /  14.1 °C 29.8in /  1008.8hPa Calm   5mph /  8km/h 64% 0in /  0.0mm 0 W/m2
03:53 70 °F /  21.1 °C 57.2 °F /  14 °C 29.8in /  1008.8hPa NW 2.9mph /  4.7km/h 4mph /  6.4km/h 64% 0in /  0.0mm 0 W/m2
03:58 69.6 °F /  20.9 °C 57.4 °F /  14.1 °C 29.8in /  1008.8hPa WSW 2.9mph /  4.7km/h 4mph /  6.4km/h 65% 0in /  0.0mm 0 W/m2
04:03 69.4 °F /  20.8 °C 57.2 °F /  14 °C 29.8in /  1008.8hPa West 2mph /  3.2km/h 3mph /  4.8km/h 65% 0in /  0.0mm 0 W/m2
04:09 69.3 °F /  20.7 °C 57.4 °F /  14.1 °C 29.8in /  1008.8hPa SW 2.9mph /  4.7km/h 4mph /  6.4km/h 66% 0in /  0.0mm 0 W/m2
04:14 68.9 °F /  20.5 °C 57 °F /  13.9 °C 29.8in /  1008.8hPa WSW 2.9mph /  4.7km/h 8mph /  12.9km/h 66% 0in /  0.0mm 0 W/m2
04:19 68.7 °F /  20.4 °C 57.4 °F /  14.1 °C 29.8in /  1008.8hPa NW 4.9mph /  7.9km/h 6mph /  9.7km/h 67% 0in /  0.0mm 0 W/m2
04:24 68.5 °F /  20.3 °C 57.2 °F /  14 °C 29.8in /  1008.8hPa West 2.9mph /  4.7km/h 8mph /  12.9km/h 67% 0in /  0.0mm 0 W/m2
04:29 68.4 °F /  20.2 °C 57.4 °F /  14.1 °C 29.8in /  1008.8hPa NW 4mph /  6.4km/h 5mph /  8km/h 68% 0in /  0.0mm 0 W/m2
04:34 68.2 °F /  20.1 °C 57.2 °F /  14 °C 29.8in /  1008.8hPa WSW 2.9mph /  4.7km/h 11mph /  17.7km/h 68% 0in /  0.0mm 0 W/m2
04:39 67.8 °F /  19.9 °C 56.8 °F /  13.8 °C 29.8in /  1008.8hPa West 4mph /  6.4km/h 6mph /  9.7km/h 68% 0in /  0.0mm 0 W/m2
04:44 67.6 °F /  19.8 °C 57 °F /  13.9 °C 29.8in /  1009.1hPa NW 4.9mph /  7.9km/h 11mph /  17.7km/h 69% 0in /  0.0mm 0 W/m2
04:49 67.5 °F /  19.7 °C 57.4 °F /  14.1 °C 29.8in /  1008.8hPa WSW 2.9mph /  4.7km/h 7mph /  11.3km/h 70% 0in /  0.0mm 0 W/m2
04:54 67.1 °F /  19.5 °C 57 °F /  13.9 °C 29.8in /  1009.1hPa WSW 4mph /  6.4km/h 7mph /  11.3km/h 70% 0in /  0.0mm 0 W/m2
04:59 66.9 °F /  19.4 °C 57.2 °F /  14 °C 29.8in /  1009.1hPa WSW 10.1mph /  16.3km/h 10mph /  16.1km/h 71% 0in /  0.0mm 0 W/m2
05:04 66.7 °F /  19.3 °C 57.4 °F /  14.1 °C 29.8in /  1009.1hPa NW 4mph /  6.4km/h 8mph /  12.9km/h 72% 0in /  0.0mm 0 W/m2
05:09 66.6 °F /  19.2 °C 57.6 °F /  14.2 °C 29.8in /  1009.1hPa West 4mph /  6.4km/h 10mph /  16.1km/h 73% 0in /  0.0mm 0 W/m2
05:14 66.2 °F /  19 °C 57.7 °F /  14.3 °C 29.8in /  1009.1hPa WNW 2.9mph /  4.7km/h 6mph /  9.7km/h 74% 0in /  0.0mm 0 W/m2
05:19 66 °F /  18.9 °C 57.9 °F /  14.4 °C 29.8in /  1009.1hPa WNW 4.9mph /  7.9km/h 10mph /  16.1km/h 75% 0in /  0.0mm 0 W/m2
05:24 65.8 °F /  18.8 °C 57.7 °F /  14.3 °C 29.8in /  1009.5hPa West 6.9mph /  11.1km/h 9mph /  14.5km/h 75% 0in /  0.0mm 0 W/m2
05:29 65.7 °F /  18.7 °C 58.3 °F /  14.6 °C 29.8in /  1009.5hPa West 6.9mph /  11.1km/h 8mph /  12.9km/h 77% 0in /  0.0mm 0 W/m2
05:34 65.5 °F /  18.6 °C 58.1 °F /  14.5 °C 29.8in /  1009.5hPa West 2.9mph /  4.7km/h 8mph /  12.9km/h 77% 0in /  0.0mm 0 W/m2
05:39 65.3 °F /  18.5 °C 58.3 °F /  14.6 °C 29.8in /  1009.8hPa West 6.9mph /  11.1km/h 10mph /  16.1km/h 78% 0in /  0.0mm 0 W/m2
05:44 65.1 °F /  18.4 °C 58.1 °F /  14.5 °C 29.8in /  1009.8hPa West 2.9mph /  4.7km/h 8mph /  12.9km/h 78% 0in /  0.0mm 0 W/m2
05:49 64.9 °F /  18.3 °C 58.3 °F /  14.6 °C 29.8in /  1009.8hPa WSW 8.1mph /  13km/h 9mph /  14.5km/h 79% 0in /  0.0mm 0 W/m2
05:54 64.8 °F /  18.2 °C 58.1 °F /  14.5 °C 29.8in /  1009.8hPa WSW 10.1mph /  16.3km/h 10mph /  16.1km/h 79% 0in /  0.0mm 5 W/m2
05:59 64.8 °F /  18.2 °C 58.1 °F /  14.5 °C 29.8in /  1009.8hPa WSW 8.1mph /  13km/h 8mph /  12.9km/h 79% 0in /  0.0mm 9 W/m2
06:04 64.6 °F /  18.1 °C 58.3 °F /  14.6 °C 29.8in /  1009.8hPa West 6mph /  9.7km/h 10mph /  16.1km/h 80% 0in /  0.0mm 11 W/m2
06:09 64.2 °F /  17.9 °C 57.9 °F /  14.4 °C 29.8in /  1010.2hPa West 2.9mph /  4.7km/h 6mph /  9.7km/h 80% 0in /  0.0mm 16 W/m2
06:14 64 °F /  17.8 °C 58.1 °F /  14.5 °C 29.8in /  1010.2hPa WNW 9mph /  14.5km/h 9mph /  14.5km/h 81% 0in /  0.0mm 18 W/m2
06:19 63.9 °F /  17.7 °C 57.9 °F /  14.4 °C 29.8in /  1010.2hPa WNW 2.9mph /  4.7km/h 7mph /  11.3km/h 81% 0in /  0.0mm 23 W/m2
06:24 63.9 °F /  17.7 °C 57.9 °F /  14.4 °C 29.8in /  1010.2hPa WSW 4mph /  6.4km/h 8mph /  12.9km/h 81% 0in /  0.0mm 25 W/m2
06:29 63.9 °F /  17.7 °C 58.3 °F /  14.6 °C 29.8in /  1010.2hPa WNW 2.9mph /  4.7km/h 10mph /  16.1km/h 82% 0in /  0.0mm 26 W/m2
06:34 63.9 °F /  17.7 °C 57.9 °F /  14.4 °C 29.8in /  1010.2hPa WNW 8.1mph /  13km/h 8mph /  12.9km/h 81% 0in /  0.0mm 33 W/m2
06:39 63.9 °F /  17.7 °C 57.9 °F /  14.4 °C 29.8in /  1010.2hPa West 4mph /  6.4km/h 9mph /  14.5km/h 81% 0in /  0.0mm 33 W/m2
06:44 63.9 °F /  17.7 °C 58.3 °F /  14.6 °C 29.8in /  1010.2hPa WSW 4mph /  6.4km/h 4mph /  6.4km/h 82% 0in /  0.0mm 32 W/m2
06:49 63.9 °F /  17.7 °C 58.3 °F /  14.6 °C 29.8in /  1010.2hPa West 2.9mph /  4.7km/h 7mph /  11.3km/h 82% 0in /  0.0mm 28 W/m2
06:54 63.7 °F /  17.6 °C 58.1 °F /  14.5 °C 29.8in /  1010.2hPa West 6.9mph /  11.1km/h 7mph /  11.3km/h 82% 0in /  0.0mm 32 W/m2
06:59 63.5 °F /  17.5 °C 57.9 °F /  14.4 °C 29.8in /  1010.2hPa WNW 4mph /  6.4km/h 4mph /  6.4km/h 82% 0in /  0.0mm 32 W/m2
07:04 63.3 °F /  17.4 °C 58.1 °F /  14.5 °C 29.8in /  1010.2hPa West 6mph /  9.7km/h 9mph /  14.5km/h 83% 0in /  0.0mm 30 W/m2
07:09 63.1 °F /  17.3 °C 57.9 °F /  14.4 °C 29.8in /  1010.2hPa West 2mph /  3.2km/h 4mph /  6.4km/h 83% 0in /  0.0mm 32 W/m2
07:14 63.1 °F /  17.3 °C 57.9 °F /  14.4 °C 29.8in /  1010.5hPa WNW 2.9mph /  4.7km/h 9mph /  14.5km/h 83% 0in /  0.0mm 37 W/m2
07:19 63.1 °F /  17.3 °C 57.9 °F /  14.4 °C 29.8in /  1010.5hPa West 6.9mph /  11.1km/h 7mph /  11.3km/h 83% 0in /  0.0mm 51 W/m2
07:24 63.1 °F /  17.3 °C 57.9 °F /  14.4 °C 29.8in /  1010.5hPa WSW 4.9mph /  7.9km/h 7mph /  11.3km/h 83% 0in /  0.0mm 53 W/m2
07:29 63.3 °F /  17.4 °C 58.1 °F /  14.5 °C 29.8in /  1010.5hPa WNW 4mph /  6.4km/h 7mph /  11.3km/h 83% 0in /  0.0mm 47 W/m2
07:34 63.3 °F /  17.4 °C 58.1 °F /  14.5 °C 29.8in /  1010.2hPa WNW 0.9mph /  1.4km/h 8mph /  12.9km/h 83% 0in /  0.0mm 51 W/m2
07:39 63.1 °F /  17.3 °C 57.9 °F /  14.4 °C 29.8in /  1010.5hPa West 0.9mph /  1.4km/h 9mph /  14.5km/h 83% 0in /  0.0mm 53 W/m2
07:44 63 °F /  17.2 °C 57.7 °F /  14.3 °C 29.8in /  1010.2hPa West 6mph /  9.7km/h 8mph /  12.9km/h 83% 0in /  0.0mm 53 W/m2
07:49 62.8 °F /  17.1 °C 57.6 °F /  14.2 °C 29.8in /  1010.2hPa WSW 4mph /  6.4km/h 10mph /  16.1km/h 83% 0in /  0.0mm 46 W/m2
07:54 62.4 °F /  16.9 °C 57.6 °F /  14.2 °C 29.8in /  1010.5hPa WNW 2mph /  3.2km/h 8mph /  12.9km/h 84% 0in /  0.0mm 60 W/m2
07:59 62.4 °F /  16.9 °C 57.9 °F /  14.4 °C 29.8in /  1010.5hPa West 4mph /  6.4km/h 8mph /  12.9km/h 85% 0in /  0.0mm 172 W/m2
08:04 62.8 °F /  17.1 °C 57.9 °F /  14.4 °C 29.8in /  1010.5hPa WNW 4mph /  6.4km/h 8mph /  12.9km/h 84% 0in /  0.0mm 90 W/m2
08:09 62.8 °F /  17.1 °C 57.9 °F /  14.4 °C 29.8in /  1010.5hPa WNW 2.9mph /  4.7km/h 8mph /  12.9km/h 84% 0in /  0.0mm 77 W/m2
08:14 62.8 °F /  17.1 °C 57.9 °F /  14.4 °C 29.9in /  1010.8hPa WNW 2.9mph /  4.7km/h 8mph /  12.9km/h 84% 0in /  0.0mm 72 W/m2
08:19 62.8 °F /  17.1 °C 57.9 °F /  14.4 °C 29.9in /  1010.8hPa WNW 2mph /  3.2km/h 6mph /  9.7km/h 84% 0in /  0.0mm 100 W/m2
08:24 63 °F /  17.2 °C 58.1 °F /  14.5 °C 29.9in /  1010.8hPa SW 2.9mph /  4.7km/h 8mph /  12.9km/h 84% 0in /  0.0mm 97 W/m2
08:29 63 °F /  17.2 °C 58.1 °F /  14.5 °C 29.9in /  1010.8hPa WNW 4.9mph /  7.9km/h 8mph /  12.9km/h 84% 0in /  0.0mm 93 W/m2
08:34 63.1 °F /  17.3 °C 58.3 °F /  14.6 °C 29.9in /  1010.8hPa NW 2mph /  3.2km/h 7mph /  11.3km/h 84% 0in /  0.0mm 95 W/m2
08:39 63.3 °F /  17.4 °C 58.5 °F /  14.7 °C 29.9in /  1010.8hPa NW 4.9mph /  7.9km/h 7mph /  11.3km/h 84% 0in /  0.0mm 83 W/m2
08:44 63.7 °F /  17.6 °C 58.5 °F /  14.7 °C 29.9in /  1010.8hPa NW 4mph /  6.4km/h 7mph /  11.3km/h 83% 0in /  0.0mm 91 W/m2
08:49 63.9 °F /  17.7 °C 58.6 °F /  14.8 °C 29.9in /  1010.8hPa West 2mph /  3.2km/h 10mph /  16.1km/h 83% 0in /  0.0mm 90 W/m2
08:54 63.9 °F /  17.7 °C 58.6 °F /  14.8 °C 29.9in /  1010.8hPa West 6.9mph /  11.1km/h 10mph /  16.1km/h 83% 0in /  0.0mm 74 W/m2
08:59 64 °F /  17.8 °C 58.8 °F /  14.9 °C 29.9in /  1011.2hPa NW 4mph /  6.4km/h 6mph /  9.7km/h 83% 0in /  0.0mm 86 W/m2
09:04 64 °F /  17.8 °C 58.5 °F /  14.7 °C 29.9in /  1011.2hPa West 6mph /  9.7km/h 9mph /  14.5km/h 82% 0in /  0.0mm 97 W/m2
09:09 64.2 °F /  17.9 °C 58.6 °F /  14.8 °C 29.9in /  1011.2hPa WNW 4mph /  6.4km/h 7mph /  11.3km/h 82% 0in /  0.0mm 93 W/m2
09:14 64.2 °F /  17.9 °C 58.6 °F /  14.8 °C 29.9in /  1011.2hPa WNW 4mph /  6.4km/h 11mph /  17.7km/h 82% 0in /  0.0mm 76 W/m2
09:19 64.2 °F /  17.9 °C 58.6 °F /  14.8 °C 29.9in /  1011.2hPa West 4mph /  6.4km/h 10mph /  16.1km/h 82% 0in /  0.0mm 86 W/m2
09:24 64.4 °F /  18 °C 58.5 °F /  14.7 °C 29.9in /  1011.2hPa WNW 8.1mph /  13km/h 11mph /  17.7km/h 81% 0in /  0.0mm 127 W/m2
09:29 64.6 °F /  18.1 °C 58.6 °F /  14.8 °C 29.9in /  1011.2hPa WNW 2.9mph /  4.7km/h 7mph /  11.3km/h 81% 0in /  0.0mm 139 W/m2
09:34 64.8 °F /  18.2 °C 58.5 °F /  14.7 °C 29.9in /  1011.2hPa WNW 2mph /  3.2km/h 10mph /  16.1km/h 80% 0in /  0.0mm 163 W/m2
09:39 65.1 °F /  18.4 °C 58.8 °F /  14.9 °C 29.9in /  1011.2hPa WSW 4.9mph /  7.9km/h 8mph /  12.9km/h 80% 0in /  0.0mm 239 W/m2
09:44 65.7 °F /  18.7 °C 59 °F /  15 °C 29.9in /  1011.2hPa NNW 2.9mph /  4.7km/h 9mph /  14.5km/h 79% 0in /  0.0mm 290 W/m2
09:49 65.8 °F /  18.8 °C 58.8 °F /  14.9 °C 29.9in /  1011.5hPa WNW 4mph /  6.4km/h 8mph /  12.9km/h 78% 0in /  0.0mm 127 W/m2
09:54 66 °F /  18.9 °C 59 °F /  15 °C 29.9in /  1011.2hPa WNW 4mph /  6.4km/h 6mph /  9.7km/h 78% 0in /  0.0mm 121 W/m2
09:59 65.8 °F /  18.8 °C 58.8 °F /  14.9 °C 29.9in /  1011.5hPa SSW 2mph /  3.2km/h 12mph /  19.3km/h 78% 0in /  0.0mm 105 W/m2
10:04 65.7 °F /  18.7 °C 58.3 °F /  14.6 °C 29.9in /  1011.5hPa West 12.1mph /  19.5km/h 12mph /  19.3km/h 77% 0in /  0.0mm 139 W/m2
10:10 65.7 °F /  18.7 °C 58.6 °F /  14.8 °C 29.9in /  1011.9hPa WNW 8.1mph /  13km/h 9mph /  14.5km/h 78% 0in /  0.0mm 193 W/m2
10:15 65.8 °F /  18.8 °C 58.5 °F /  14.7 °C 29.9in /  1011.9hPa WNW 6.9mph /  11.1km/h 11mph /  17.7km/h 77% 0in /  0.0mm 109 W/m2
10:20 65.8 °F /  18.8 °C 58.5 °F /  14.7 °C 29.9in /  1011.9hPa West 4mph /  6.4km/h 9mph /  14.5km/h 77% 0in /  0.0mm 53 W/m2
10:25 65.7 °F /  18.7 °C 58.3 °F /  14.6 °C 29.9in /  1011.9hPa West 6.9mph /  11.1km/h 8mph /  12.9km/h 77% 0in /  0.0mm 155 W/m2
10:30 65.7 °F /  18.7 °C 58.6 °F /  14.8 °C 29.9in /  1011.9hPa WSW 4.9mph /  7.9km/h 9mph /  14.5km/h 78% 0in /  0.0mm 123 W/m2
10:35 65.7 °F /  18.7 °C 58.6 °F /  14.8 °C 29.9in /  1011.9hPa SW 2mph /  3.2km/h 4mph /  6.4km/h 78% 0in /  0.0mm 155 W/m2
10:40 65.7 °F /  18.7 °C 59.4 °F /  15.2 °C 29.9in /  1012.2hPa West 2.9mph /  4.7km/h 6mph /  9.7km/h 80% 0in /  0.0mm 142 W/m2
10:45 65.1 °F /  18.4 °C 59.2 °F /  15.1 °C 29.9in /  1012.2hPa West 2.9mph /  4.7km/h 7mph /  11.3km/h 81% 0in /  0.0mm 248 W/m2
10:50 64.9 °F /  18.3 °C 59 °F /  15 °C 29.9in /  1012.2hPa NW 6mph /  9.7km/h 8mph /  12.9km/h 81% 0in /  0.0mm 130 W/m2
10:55 64.6 °F /  18.1 °C 59 °F /  15 °C 29.9in /  1012.2hPa SW 4mph /  6.4km/h 4mph /  6.4km/h 82% 0in /  0.0mm 156 W/m2
11:00 64.6 °F /  18.1 °C 58.6 °F /  14.8 °C 29.9in /  1012.2hPa SW 4.9mph /  7.9km/h 6mph /  9.7km/h 81% 0in /  0.0mm 167 W/m2
11:05 64.6 °F /  18.1 °C 58.6 °F /  14.8 °C 29.9in /  1012.2hPa West 6mph /  9.7km/h 7mph /  11.3km/h 81% 0in /  0.0mm 206 W/m2
11:10 64.8 °F /  18.2 °C 58.5 °F /  14.7 °C 29.9in /  1012.2hPa West 10.1mph /  16.3km/h 13mph /  20.9km/h 80% 0in /  0.0mm 253 W/m2
11:15 65.1 °F /  18.4 °C 58.8 °F /  14.9 °C 29.9in /  1012.5hPa West 6mph /  9.7km/h 8mph /  12.9km/h 80% 0in /  0.0mm 243 W/m2
11:20 65.5 °F /  18.6 °C 59.2 °F /  15.1 °C 29.9in /  1012.5hPa WNW 4mph /  6.4km/h 11mph /  17.7km/h 80% 0in /  0.0mm 338 W/m2
11:25 65.8 °F /  18.8 °C 59.2 °F /  15.1 °C 29.9in /  1012.5hPa NE 0.9mph /  1.4km/h 5mph /  8km/h 79% 0in /  0.0mm 230 W/m2
11:30 66 °F /  18.9 °C 59 °F /  15 °C 29.9in /  1012.5hPa West 2.9mph /  4.7km/h 8mph /  12.9km/h 78% 0in /  0.0mm 274 W/m2
11:35 66.4 °F /  19.1 °C 59.4 °F /  15.2 °C 29.9in /  1012.5hPa West 2.9mph /  4.7km/h 3mph /  4.8km/h 78% 0in /  0.0mm 281 W/m2
11:40 66.4 °F /  19.1 °C 59 °F /  15 °C 29.9in /  1012.5hPa West 2.9mph /  4.7km/h 5mph /  8km/h 77% 0in /  0.0mm 202 W/m2
11:45 66.6 °F /  19.2 °C 59.2 °F /  15.1 °C 29.9in /  1012.9hPa WNW 8.1mph /  13km/h 8mph /  12.9km/h 77% 0in /  0.0mm 272 W/m2
11:50 66.7 °F /  19.3 °C 59 °F /  15 °C 29.9in /  1012.9hPa WNW 2.9mph /  4.7km/h 12mph /  19.3km/h 76% 0in /  0.0mm 352 W/m2
11:55 66.7 °F /  19.3 °C 59 °F /  15 °C 29.9in /  1012.9hPa NW 8.1mph /  13km/h 10mph /  16.1km/h 76% 0in /  0.0mm 237 W/m2
12:00 66.7 °F /  19.3 °C 59 °F /  15 °C 29.9in /  1012.9hPa WNW 4mph /  6.4km/h 5mph /  8km/h 76% 0in /  0.0mm 209 W/m2
12:05 66.7 °F /  19.3 °C 58.6 °F /  14.8 °C 29.9in /  1012.9hPa WNW 4mph /  6.4km/h 9mph /  14.5km/h 75% 0in /  0.0mm 232 W/m2
12:10 67.3 °F /  19.6 °C 59 °F /  15 °C 29.9in /  1012.9hPa WNW 4.9mph /  7.9km/h 8mph /  12.9km/h 75% 0in /  0.0mm 265 W/m2
12:15 67.5 °F /  19.7 °C 58.8 °F /  14.9 °C 29.9in /  1012.9hPa WNW 4mph /  6.4km/h 8mph /  12.9km/h 74% 0in /  0.0mm 332 W/m2
12:20 67.8 °F /  19.9 °C 58.8 °F /  14.9 °C 29.9in /  1013.2hPa West 2mph /  3.2km/h 8mph /  12.9km/h 73% 0in /  0.0mm 448 W/m2
12:25 68.4 °F /  20.2 °C 58.3 °F /  14.6 °C 29.9in /  1013.2hPa WNW 4.9mph /  7.9km/h 11mph /  17.7km/h 70% 0in /  0.0mm 448 W/m2
12:30 68.5 °F /  20.3 °C 57.6 °F /  14.2 °C 29.9in /  1013.2hPa West 11mph /  17.7km/h 13mph /  20.9km/h 68% 0in /  0.0mm 394 W/m2
12:36 68.5 °F /  20.3 °C 58.3 °F /  14.6 °C 29.9in /  1013.2hPa NW 2mph /  3.2km/h 7mph /  11.3km/h 70% 0in /  0.0mm 545 W/m2
12:41 69.1 °F /  20.6 °C 58.5 °F /  14.7 °C 29.9in /  1013.2hPa WNW 4mph /  6.4km/h 11mph /  17.7km/h 69% 0in /  0.0mm 446 W/m2
12:46 69.3 °F /  20.7 °C 57.9 °F /  14.4 °C 29.9in /  1013.2hPa WNW 2.9mph /  4.7km/h 9mph /  14.5km/h 67% 0in /  0.0mm 483 W/m2
12:51 69.4 °F /  20.8 °C 57.9 °F /  14.4 °C 29.9in /  1013.2hPa West 6mph /  9.7km/h 10mph /  16.1km/h 67% 0in /  0.0mm 369 W/m2
12:56 69.3 °F /  20.7 °C 57.9 °F /  14.4 °C 29.9in /  1013.2hPa West 6.9mph /  11.1km/h 8mph /  12.9km/h 67% 0in /  0.0mm 302 W/m2
13:01 69.1 °F /  20.6 °C 58.1 °F /  14.5 °C 29.9in /  1013.5hPa NW 6mph /  9.7km/h 10mph /  16.1km/h 68% 0in /  0.0mm 230 W/m2
13:06 68.7 °F /  20.4 °C 57.7 °F /  14.3 °C 29.9in /  1013.2hPa NW 2.9mph /  4.7km/h 10mph /  16.1km/h 68% 0in /  0.0mm 255 W/m2
13:11 68.7 °F /  20.4 °C 57.7 °F /  14.3 °C 29.9in /  1013.5hPa WNW 0.9mph /  1.4km/h 10mph /  16.1km/h 68% 0in /  0.0mm 211 W/m2
13:16 68.5 °F /  20.3 °C 57.9 °F /  14.4 °C 29.9in /  1013.5hPa West 6mph /  9.7km/h 6mph /  9.7km/h 69% 0in /  0.0mm 230 W/m2
13:21 68.5 °F /  20.3 °C 57.9 °F /  14.4 °C 29.9in /  1013.5hPa WNW 2.9mph /  4.7km/h 5mph /  8km/h 69% 0in /  0.0mm 357 W/m2
13:26 68.7 °F /  20.4 °C 58.1 °F /  14.5 °C 29.9in /  1013.5hPa WNW 2mph /  3.2km/h 6mph /  9.7km/h 69% 0in /  0.0mm 362 W/m2
13:31 69.1 °F /  20.6 °C 58.5 °F /  14.7 °C 29.9in /  1013.5hPa SW 4mph /  6.4km/h 9mph /  14.5km/h 69% 0in /  0.0mm 350 W/m2
13:36 69.4 °F /  20.8 °C 58.5 °F /  14.7 °C 29.9in /  1013.5hPa WNW 4mph /  6.4km/h 4mph /  6.4km/h 68% 0in /  0.0mm 294 W/m2
13:41 69.6 °F /  20.9 °C 58.1 °F /  14.5 °C 29.9in /  1013.5hPa NNW 8.1mph /  13km/h 10mph /  16.1km/h 67% 0in /  0.0mm 339 W/m2
13:46 70 °F /  21.1 °C 58.1 °F /  14.5 °C 29.9in /  1013.5hPa WNW 4.9mph /  7.9km/h 13mph /  20.9km/h 66% 0in /  0.0mm 656 W/m2
13:51 70.5 °F /  21.4 °C 59 °F /  15 °C 29.9in /  1013.5hPa North 0.9mph /  1.4km/h 7mph /  11.3km/h 67% 0in /  0.0mm 863 W/m2
13:56 71.1 °F /  21.7 °C 58.6 °F /  14.8 °C 29.9in /  1013.5hPa West 4mph /  6.4km/h 13mph /  20.9km/h 65% 0in /  0.0mm 740 W/m2
14:01 71.8 °F /  22.1 °C 58.5 °F /  14.7 °C 29.9in /  1013.5hPa SW 6mph /  9.7km/h 9mph /  14.5km/h 63% 0in /  0.0mm 1063 W/m2
14:06 72 °F /  22.2 °C 57.7 °F /  14.3 °C 29.9in /  1013.5hPa NNW 4.9mph /  7.9km/h 14mph /  22.5km/h 61% 0in /  0.0mm 824 W/m2
14:11 72.1 °F /  22.3 °C 58.5 °F /  14.7 °C 29.9in /  1013.5hPa WNW 8.1mph /  13km/h 10mph /  16.1km/h 62% 0in /  0.0mm 439 W/m2
14:16 72.1 °F /  22.3 °C 57.9 °F /  14.4 °C 29.9in /  1013.5hPa West 6mph /  9.7km/h 10mph /  16.1km/h 61% 0in /  0.0mm 497 W/m2
14:21 72.7 °F /  22.6 °C 57.6 °F /  14.2 °C 29.9in /  1013.5hPa West 4mph /  6.4km/h 10mph /  16.1km/h 59% 0in /  0.0mm 772 W/m2
14:26 72.7 °F /  22.6 °C 57.6 °F /  14.2 °C 29.9in /  1013.5hPa West 8.1mph /  13km/h 8mph /  12.9km/h 59% 0in /  0.0mm 494 W/m2
14:31 72.7 °F /  22.6 °C 57.9 °F /  14.4 °C 29.9in /  1013.5hPa West 6mph /  9.7km/h 7mph /  11.3km/h 60% 0in /  0.0mm 432 W/m2
14:36 72 °F /  22.2 °C 57.4 °F /  14.1 °C 29.9in /  1013.5hPa WNW 2.9mph /  4.7km/h 12mph /  19.3km/h 60% 0in /  0.0mm 255 W/m2
14:41 71.8 °F /  22.1 °C 58.1 °F /  14.5 °C 29.9in /  1013.9hPa WNW 4.9mph /  7.9km/h 9mph /  14.5km/h 62% 0in /  0.0mm 169 W/m2
14:46 71.4 °F /  21.9 °C 57.7 °F /  14.3 °C 29.9in /  1013.5hPa West 6.9mph /  11.1km/h 12mph /  19.3km/h 62% 0in /  0.0mm 197 W/m2
14:51 71.2 °F /  21.8 °C 57.6 °F /  14.2 °C 29.9in /  1013.9hPa NNW 6mph /  9.7km/h 9mph /  14.5km/h 62% 0in /  0.0mm 281 W/m2
14:56 71.2 °F /  21.8 °C 57.6 °F /  14.2 °C 29.9in /  1013.5hPa NW 4mph /  6.4km/h 11mph /  17.7km/h 62% 0in /  0.0mm 410 W/m2
15:01 71.4 °F /  21.9 °C 57.7 °F /  14.3 °C 29.9in /  1013.5hPa West 6mph /  9.7km/h 6mph /  9.7km/h 62% 0in /  0.0mm 327 W/m2
15:06 71.4 °F /  21.9 °C 57.7 °F /  14.3 °C 29.9in /  1013.5hPa West 8.1mph /  13km/h 11mph /  17.7km/h 62% 0in /  0.0mm 287 W/m2
15:11 71.2 °F /  21.8 °C 57.6 °F /  14.2 °C 29.9in /  1013.5hPa SW 2.9mph /  4.7km/h 8mph /  12.9km/h 62% 0in /  0.0mm 216 W/m2
15:16 71.2 °F /  21.8 °C 57.6 °F /  14.2 °C 29.9in /  1013.5hPa NW 4.9mph /  7.9km/h 7mph /  11.3km/h 62% 0in /  0.0mm 260 W/m2
15:21 71.1 °F /  21.7 °C 57.4 °F /  14.1 °C 29.9in /  1013.9hPa WSW 4mph /  6.4km/h 10mph /  16.1km/h 62% 0in /  0.0mm 255 W/m2
15:31 70.9 °F /  21.6 °C 56.8 °F /  13.8 °C 29.9in /  1013.9hPa WSW 4.9mph /  7.9km/h 11mph /  17.7km/h 61% 0in /  0.0mm 197 W/m2
15:36 70.5 °F /  21.4 °C 56.8 °F /  13.8 °C 30in /  1014.2hPa WSW 14mph /  22.5km/h 14mph /  22.5km/h 62% 0in /  0.0mm 209 W/m2
15:46 70.3 °F /  21.3 °C 57.2 °F /  14 °C 30in /  1014.2hPa NW 6mph /  9.7km/h 10mph /  16.1km/h 63% 0in /  0.0mm 251 W/m2
15:51 70.3 °F /  21.3 °C 57.2 °F /  14 °C 30in /  1014.2hPa WNW 4mph /  6.4km/h 12mph /  19.3km/h 63% 0in /  0.0mm 255 W/m2
15:56 70.2 °F /  21.2 °C 57 °F /  13.9 °C 30in /  1014.2hPa NW 8.9mph /  14.3km/h 9mph /  14.5km/h 63% 0in /  0.0mm 236 W/m2
16:01 70.2 °F /  21.2 °C 57 °F /  13.9 °C 30in /  1014.2hPa NW 4mph /  6.4km/h 9mph /  14.5km/h 63% 0in /  0.0mm 225 W/m2
16:06 70.2 °F /  21.2 °C 57 °F /  13.9 °C 30in /  1014.2hPa NW 4.9mph /  7.9km/h 8mph /  12.9km/h 63% 0in /  0.0mm 202 W/m2
16:11 70.2 °F /  21.2 °C 57.4 °F /  14.1 °C 30in /  1014.2hPa WNW 2.9mph /  4.7km/h 5mph /  8km/h 64% 0in /  0.0mm 211 W/m2
16:16 70 °F /  21.1 °C 57.2 °F /  14 °C 30in /  1014.2hPa WNW 2.9mph /  4.7km/h 8mph /  12.9km/h 64% 0in /  0.0mm 230 W/m2
16:21 70.2 °F /  21.2 °C 57.4 °F /  14.1 °C 30in /  1014.2hPa WNW 2.9mph /  4.7km/h 8mph /  12.9km/h 64% 0in /  0.0mm 269 W/m2
16:26 70.2 °F /  21.2 °C 57.4 °F /  14.1 °C 30in /  1014.2hPa WSW 4.9mph /  7.9km/h 6mph /  9.7km/h 64% 0in /  0.0mm 292 W/m2
16:31 70.2 °F /  21.2 °C 57.4 °F /  14.1 °C 30in /  1014.2hPa WSW 2.9mph /  4.7km/h 5mph /  8km/h 64% 0in /  0.0mm 272 W/m2
16:36 70.3 °F /  21.3 °C 56.7 °F /  13.7 °C 30in /  1014.2hPa WSW 8.9mph /  14.3km/h 9mph /  14.5km/h 62% 0in /  0.0mm 241 W/m2
16:41 70.2 °F /  21.2 °C 56.5 °F /  13.6 °C 30in /  1014.2hPa West 6mph /  9.7km/h 10mph /  16.1km/h 62% 0in /  0.0mm 232 W/m2
16:47 70.2 °F /  21.2 °C 56.5 °F /  13.6 °C 30in /  1014.2hPa West 2mph /  3.2km/h 7mph /  11.3km/h 62% 0in /  0.0mm 227 W/m2
16:52 70.2 °F /  21.2 °C 56.5 °F /  13.6 °C 30in /  1014.2hPa WSW 8.9mph /  14.3km/h 9mph /  14.5km/h 62% 0in /  0.0mm 229 W/m2
16:57 70.2 °F /  21.2 °C 57 °F /  13.9 °C 30in /  1014.6hPa WNW 2.9mph /  4.7km/h 5mph /  8km/h 63% 0in /  0.0mm 232 W/m2
17:02 70.2 °F /  21.2 °C 57 °F /  13.9 °C 30in /  1014.6hPa West 8.9mph /  14.3km/h 9mph /  14.5km/h 63% 0in /  0.0mm 216 W/m2
17:07 70.2 °F /  21.2 °C 57 °F /  13.9 °C 30in /  1014.6hPa West 2mph /  3.2km/h 9mph /  14.5km/h 63% 0in /  0.0mm 183 W/m2
17:12 70.2 °F /  21.2 °C 57 °F /  13.9 °C 30in /  1014.6hPa West 2.9mph /  4.7km/h 12mph /  19.3km/h 63% 0in /  0.0mm 179 W/m2
17:17 69.8 °F /  21 °C 56.7 °F /  13.7 °C 30in /  1014.6hPa WNW 2.9mph /  4.7km/h 9mph /  14.5km/h 63% 0in /  0.0mm 179 W/m2
17:22 69.6 °F /  20.9 °C 56.5 °F /  13.6 °C 30in /  1014.6hPa West 8.1mph /  13km/h 13mph /  20.9km/h 63% 0in /  0.0mm 169 W/m2
17:27 69.4 °F /  20.8 °C 56.3 °F /  13.5 °C 30in /  1014.6hPa West 6mph /  9.7km/h 8mph /  12.9km/h 63% 0in /  0.0mm 167 W/m2
17:32 69.4 °F /  20.8 °C 55.9 °F /  13.3 °C 30in /  1014.2hPa West 6.9mph /  11.1km/h 10mph /  16.1km/h 62% 0in /  0.0mm 193 W/m2
17:37 69.4 °F /  20.8 °C 56.3 °F /  13.5 °C 30in /  1014.2hPa SW 4.9mph /  7.9km/h 6mph /  9.7km/h 63% 0in /  0.0mm 204 W/m2
17:42 69.4 °F /  20.8 °C 55.9 °F /  13.3 °C 30in /  1014.2hPa West 8.1mph /  13km/h 10mph /  16.1km/h 62% 0in /  0.0mm 190 W/m2
17:47 69.4 °F /  20.8 °C 55.9 °F /  13.3 °C 30in /  1014.2hPa WSW 6.9mph /  11.1km/h 8mph /  12.9km/h 62% 0in /  0.0mm 174 W/m2
17:52 69.3 °F /  20.7 °C 55.8 °F /  13.2 °C 30in /  1014.2hPa WNW 10mph /  16.1km/h 10mph /  16.1km/h 62% 0in /  0.0mm 179 W/m2
17:57 69.3 °F /  20.7 °C 55.8 °F /  13.2 °C 30in /  1014.2hPa WNW 4mph /  6.4km/h 6mph /  9.7km/h 62% 0in /  0.0mm 176 W/m2
18:02 69.3 °F /  20.7 °C 55.8 °F /  13.2 °C 30in /  1014.2hPa WNW 2.9mph /  4.7km/h 4mph /  6.4km/h 62% 0in /  0.0mm 162 W/m2
18:07 69.4 °F /  20.8 °C 55.9 °F /  13.3 °C 30in /  1014.2hPa West 2.9mph /  4.7km/h 6mph /  9.7km/h 62% 0in /  0.0mm 155 W/m2
18:12 69.4 °F /  20.8 °C 55.9 °F /  13.3 °C 30in /  1014.2hPa NW 0.9mph /  1.4km/h 4mph /  6.4km/h 62% 0in /  0.0mm 155 W/m2
18:17 69.4 °F /  20.8 °C 55.9 °F /  13.3 °C 30in /  1014.2hPa WNW 4mph /  6.4km/h 8mph /  12.9km/h 62% 0in /  0.0mm 148 W/m2
18:22 69.4 °F /  20.8 °C 56.3 °F /  13.5 °C 30in /  1014.2hPa WNW 4mph /  6.4km/h 5mph /  8km/h 63% 0in /  0.0mm 139 W/m2
18:27 69.3 °F /  20.7 °C 56.1 °F /  13.4 °C 30in /  1014.6hPa West 2mph /  3.2km/h 4mph /  6.4km/h 63% 0in /  0.0mm 121 W/m2
18:32 69.3 °F /  20.7 °C 56.1 °F /  13.4 °C 30in /  1014.2hPa WNW 2mph /  3.2km/h 6mph /  9.7km/h 63% 0in /  0.0mm 121 W/m2
18:37 69.1 °F /  20.6 °C 55.9 °F /  13.3 °C 30in /  1014.6hPa WNW 2mph /  3.2km/h 3mph /  4.8km/h 63% 0in /  0.0mm 139 W/m2
18:42 69.1 °F /  20.6 °C 55.9 °F /  13.3 °C 30in /  1014.6hPa WNW 0.9mph /  1.4km/h 5mph /  8km/h 63% 0in /  0.0mm 135 W/m2
18:47 69.1 °F /  20.6 °C 55.9 °F /  13.3 °C 30in /  1014.6hPa WNW 2.9mph /  4.7km/h 4mph /  6.4km/h 63% 0in /  0.0mm 134 W/m2
18:52 69.1 °F /  20.6 °C 56.5 °F /  13.6 °C 30in /  1014.6hPa WNW 2mph /  3.2km/h 4mph /  6.4km/h 64% 0in /  0.0mm 123 W/m2
18:57 69.1 °F /  20.6 °C 56.5 °F /  13.6 °C 30in /  1014.6hPa West 2mph /  3.2km/h 4mph /  6.4km/h 64% 0in /  0.0mm 128 W/m2
19:02 69.3 °F /  20.7 °C 56.5 °F /  13.6 °C 30in /  1014.6hPa WSW 4mph /  6.4km/h 4mph /  6.4km/h 64% 0in /  0.0mm 149 W/m2
19:07 69.3 °F /  20.7 °C 56.1 °F /  13.4 °C 30in /  1014.6hPa West 0.9mph /  1.4km/h 4mph /  6.4km/h 63% 0in /  0.0mm 148 W/m2
19:12 69.4 °F /  20.8 °C 56.7 °F /  13.7 °C 30in /  1014.6hPa WSW 4.9mph /  7.9km/h 5mph /  8km/h 64% 0in /  0.0mm 134 W/m2
19:17 69.4 °F /  20.8 °C 56.7 °F /  13.7 °C 30in /  1014.6hPa WNW 4mph /  6.4km/h 6mph /  9.7km/h 64% 0in /  0.0mm 134 W/m2
19:22 69.4 °F /  20.8 °C 56.7 °F /  13.7 °C 30in /  1014.6hPa WSW 2mph /  3.2km/h 3mph /  4.8km/h 64% 0in /  0.0mm 146 W/m2
19:27 69.6 °F /  20.9 °C 56.8 °F /  13.8 °C 30in /  1014.6hPa SW 0.9mph /  1.4km/h 3mph /  4.8km/h 64% 0in /  0.0mm 130 W/m2
19:32 69.4 °F /  20.8 °C 56.7 °F /  13.7 °C 30in /  1014.6hPa WNW 2.9mph /  4.7km/h 6mph /  9.7km/h 64% 0in /  0.0mm 109 W/m2
19:37 69.4 °F /  20.8 °C 56.7 °F /  13.7 °C 30in /  1014.6hPa West 2mph /  3.2km/h 5mph /  8km/h 64% 0in /  0.0mm 91 W/m2
19:42 69.3 °F /  20.7 °C 57 °F /  13.9 °C 30in /  1014.9hPa SW 2mph /  3.2km/h 3mph /  4.8km/h 65% 0in /  0.0mm 58 W/m2
19:47 69.3 °F /  20.7 °C 56.5 °F /  13.6 °C 30in /  1014.9hPa WNW 2mph /  3.2km/h 7mph /  11.3km/h 64% 0in /  0.0mm 21 W/m2
19:52 69.1 °F /  20.6 °C 56.5 °F /  13.6 °C 30in /  1014.9hPa NW 0.9mph /  1.4km/h 8mph /  12.9km/h 64% 0in /  0.0mm 11 W/m2
19:57 68.5 °F /  20.3 °C 56.3 °F /  13.5 °C 30in /  1014.9hPa WNW 2mph /  3.2km/h 6mph /  9.7km/h 65% 0in /  0.0mm 7 W/m2
20:02 68.2 °F /  20.1 °C 56.8 °F /  13.8 °C 30in /  1014.9hPa West 2.9mph /  4.7km/h 9mph /  14.5km/h 67% 0in /  0.0mm 11 W/m2
20:07 67.8 °F /  19.9 °C 56.5 °F /  13.6 °C 30in /  1014.9hPa WNW 2.9mph /  4.7km/h 4mph /  6.4km/h 67% 0in /  0.0mm 16 W/m2
20:12 67.6 °F /  19.8 °C 56.3 °F /  13.5 °C 30in /  1014.9hPa NW 4mph /  6.4km/h 9mph /  14.5km/h 67% 0in /  0.0mm 26 W/m2
20:17 67.6 °F /  19.8 °C 56.3 °F /  13.5 °C 30in /  1014.9hPa WNW 2mph /  3.2km/h 4mph /  6.4km/h 67% 0in /  0.0mm 44 W/m2
20:22 67.5 °F /  19.7 °C 55.8 °F /  13.2 °C 30in /  1014.9hPa NW 8.1mph /  13km/h 8mph /  12.9km/h 66% 0in /  0.0mm 62 W/m2
20:27 67.6 °F /  19.8 °C 55.4 °F /  13 °C 30in /  1015.2hPa NW 4.9mph /  7.9km/h 7mph /  11.3km/h 65% 0in /  0.0mm 123 W/m2
20:32 68.2 °F /  20.1 °C 55.6 °F /  13.1 °C 30in /  1015.6hPa WNW 2mph /  3.2km/h 8mph /  12.9km/h 64% 0in /  0.0mm 109 W/m2
20:37 68.4 °F /  20.2 °C 55.8 °F /  13.2 °C 30in /  1015.6hPa NNW 4mph /  6.4km/h 5mph /  8km/h 64% 0in /  0.0mm 114 W/m2
20:42 68.4 °F /  20.2 °C 55.2 °F /  12.9 °C 30in /  1015.6hPa West 6mph /  9.7km/h 8mph /  12.9km/h 63% 0in /  0.0mm 109 W/m2
20:47 68.2 °F /  20.1 °C 55.6 °F /  13.1 °C 30in /  1015.6hPa SW 4.9mph /  7.9km/h 7mph /  11.3km/h 64% 0in /  0.0mm 100 W/m2
20:52 68 °F /  20 °C 54.9 °F /  12.7 °C 30in /  1015.6hPa NNW 2.9mph /  4.7km/h 8mph /  12.9km/h 63% 0in /  0.0mm 123 W/m2
20:57 67.8 °F /  19.9 °C 54.7 °F /  12.6 °C 30in /  1015.6hPa West 8.9mph /  14.3km/h 9mph /  14.5km/h 63% 0in /  0.0mm 93 W/m2
21:02 67.6 °F /  19.8 °C 55 °F /  12.8 °C 30in /  1015.6hPa NNE 2mph /  3.2km/h 5mph /  8km/h 64% 0in /  0.0mm 67 W/m2
21:07 67.3 °F /  19.6 °C 54.7 °F /  12.6 °C 30in /  1015.6hPa West 6.9mph /  11.1km/h 8mph /  12.9km/h 64% 0in /  0.0mm 70 W/m2
21:12 66.7 °F /  19.3 °C 55 °F /  12.8 °C 30in /  1015.9hPa West 2mph /  3.2km/h 11mph /  17.7km/h 66% 0in /  0.0mm 62 W/m2
21:17 66.6 °F /  19.2 °C 55.2 °F /  12.9 °C 30in /  1015.9hPa NNW 2mph /  3.2km/h 9mph /  14.5km/h 67% 0in /  0.0mm 56 W/m2
21:22 66.2 °F /  19 °C 54.9 °F /  12.7 °C 30in /  1015.9hPa NNW 2mph /  3.2km/h 8mph /  12.9km/h 67% 0in /  0.0mm 49 W/m2
21:27 66 °F /  18.9 °C 55.2 °F /  12.9 °C 30in /  1015.9hPa WNW 2.9mph /  4.7km/h 4mph /  6.4km/h 68% 0in /  0.0mm 32 W/m2
21:32 65.8 °F /  18.8 °C 55 °F /  12.8 °C 30in /  1015.9hPa West 2.9mph /  4.7km/h 7mph /  11.3km/h 68% 0in /  0.0mm 32 W/m2
21:37 65.7 °F /  18.7 °C 55.2 °F /  12.9 °C 30in /  1016.3hPa WNW 2.9mph /  4.7km/h 3mph /  4.8km/h 69% 0in /  0.0mm 28 W/m2
21:43 65.3 °F /  18.5 °C 55.2 °F /  12.9 °C 30in /  1016.3hPa NW 0.9mph /  1.4km/h 10mph /  16.1km/h 70% 0in /  0.0mm 19 W/m2
21:48 65.1 °F /  18.4 °C 55 °F /  12.8 °C 30in /  1016.3hPa NNW 2mph /  3.2km/h 4mph /  6.4km/h 70% 0in /  0.0mm 12 W/m2
21:53 64.9 °F /  18.3 °C 55.4 °F /  13 °C 30in /  1016.3hPa NNW 4mph /  6.4km/h 10mph /  16.1km/h 71% 0in /  0.0mm 7 W/m2
21:58 64.9 °F /  18.3 °C 55.4 °F /  13 °C 30in /  1016.3hPa West 6.9mph /  11.1km/h 7mph /  11.3km/h 71% 0in /  0.0mm 0 W/m2
22:03 64.9 °F /  18.3 °C 55.4 °F /  13 °C 30in /  1016.3hPa NW 0.9mph /  1.4km/h 4mph /  6.4km/h 71% 0in /  0.0mm 0 W/m2
22:08 64.8 °F /  18.2 °C 55.2 °F /  12.9 °C 30in /  1016.3hPa West 2.9mph /  4.7km/h 4mph /  6.4km/h 71% 0in /  0.0mm 0 W/m2
22:13 64.8 °F /  18.2 °C 55.6 °F /  13.1 °C 30in /  1016.6hPa WNW 4mph /  6.4km/h 4mph /  6.4km/h 72% 0in /  0.0mm 0 W/m2
22:18 64.6 °F /  18.1 °C 55.4 °F /  13 °C 30in /  1016.6hPa NW 0.9mph /  1.4km/h 3mph /  4.8km/h 72% 0in /  0.0mm 0 W/m2
22:23 64.4 °F /  18 °C 55.2 °F /  12.9 °C 30in /  1016.9hPa WNW 2mph /  3.2km/h 8mph /  12.9km/h 72% 0in /  0.0mm 0 W/m2
22:28 64.2 °F /  17.9 °C 55.4 °F /  13 °C 30in /  1016.9hPa NW 4mph /  6.4km/h 5mph /  8km/h 73% 0in /  0.0mm 0 W/m2
22:33 64.2 °F /  17.9 °C 55.4 °F /  13 °C 30in /  1016.9hPa West 4mph /  6.4km/h 8mph /  12.9km/h 73% 0in /  0.0mm 0 W/m2
22:38 64 °F /  17.8 °C 55.2 °F /  12.9 °C 30in /  1016.9hPa North 4mph /  6.4km/h 4mph /  6.4km/h 73% 0in /  0.0mm 0 W/m2
22:43 64 °F /  17.8 °C 55.2 °F /  12.9 °C 30in /  1016.9hPa NW 4.9mph /  7.9km/h 8mph /  12.9km/h 73% 0in /  0.0mm 0 W/m2
22:48 63.9 °F /  17.7 °C 55 °F /  12.8 °C 30in /  1017.3hPa West 2mph /  3.2km/h 5mph /  8km/h 73% 0in /  0.0mm 0 W/m2
22:53 63.7 °F /  17.6 °C 54.9 °F /  12.7 °C 30in /  1017.3hPa NW 4mph /  6.4km/h 8mph /  12.9km/h 73% 0in /  0.0mm 0 W/m2
22:58 63.7 °F /  17.6 °C 54.9 °F /  12.7 °C 30in /  1017.3hPa West 0.9mph /  1.4km/h 4mph /  6.4km/h 73% 0in /  0.0mm 0 W/m2
23:03 63.7 °F /  17.6 °C 54.9 °F /  12.7 °C 30in /  1017.3hPa NW 2mph /  3.2km/h 4mph /  6.4km/h 73% 0in /  0.0mm 0 W/m2
23:08 63.7 °F /  17.6 °C 54.9 °F /  12.7 °C 30in /  1017.3hPa West 2.9mph /  4.7km/h 4mph /  6.4km/h 73% 0in /  0.0mm 0 W/m2
23:13 63.5 °F /  17.5 °C 54.7 °F /  12.6 °C 30in /  1017.3hPa NW 0.9mph /  1.4km/h 7mph /  11.3km/h 73% 0in /  0.0mm 0 W/m2
23:18 63.3 °F /  17.4 °C 54.5 °F /  12.5 °C 30in /  1017.3hPa North 0.9mph /  1.4km/h 4mph /  6.4km/h 73% 0in /  0.0mm 0 W/m2
23:23 63.3 °F /  17.4 °C 54.5 °F /  12.5 °C 30.1in /  1017.6hPa WNW 2.9mph /  4.7km/h 4mph /  6.4km/h 73% 0in /  0.0mm 0 W/m2
23:28 63.3 °F /  17.4 °C 54.5 °F /  12.5 °C 30in /  1017.3hPa West 2.9mph /  4.7km/h 5mph /  8km/h 73% 0in /  0.0mm 0 W/m2
23:33 63.1 °F /  17.3 °C 54 °F /  12.2 °C 30.1in /  1017.6hPa WNW 4mph /  6.4km/h 7mph /  11.3km/h 72% 0in /  0.0mm 0 W/m2
23:38 63.1 °F /  17.3 °C 54 °F /  12.2 °C 30.1in /  1017.6hPa NW 0.9mph /  1.4km/h 4mph /  6.4km/h 72% 0in /  0.0mm 0 W/m2
23:43 63.1 °F /  17.3 °C 53.6 °F /  12 °C 30.1in /  1017.6hPa NW 2mph /  3.2km/h 8mph /  12.9km/h 71% 0in /  0.0mm 0 W/m2
23:48 63.1 °F /  17.3 °C 54 °F /  12.2 °C 30.1in /  1017.6hPa WNW 2mph /  3.2km/h 4mph /  6.4km/h 72% 0in /  0.0mm 0 W/m2
23:53 63 °F /  17.2 °C 53.8 °F /  12.1 °C 30.1in /  1018.0hPa NW 0.9mph /  1.4km/h 8mph /  12.9km/h 72% 0in /  0.0mm 0 W/m2
23:58 63 °F /  17.2 °C 53.8 °F /  12.1 °C 30.1in /  1018.0hPa WNW 4mph /  6.4km/h 4mph /  6.4km/h 72% 0in /  0.0mm 0 W/m2
Juneau County Weather
Compliments of Weather Underground - 4 mb